Time;durP1;ratioP1;P1;durP2;ratioP2;P2;SDS_P1;SDS_P2;PMS_P1;PMS_P2;Temp;Humidity;BMP_temperature;BMP_pressure;BME280_temperature;BME280_humidity;BME280_pressure;Samples;Min_cycle;Max_cycle;Signal;HPM_P1;HPM_P2
2023/05/29 00:01:27;;;;;;;11.00;4.80;;;;;;;21.92;30.25;100418.35;109002;1256;72592;-67
2023/05/29 00:03:54;;;;;;;7.10;4.20;;;;;;;21.76;30.15;100417.64;108992;1256;70297;-67
2023/05/29 00:06:22;;;;;;;8.10;4.50;;;;;;;21.85;30.21;100413.72;108980;1255;71344;-68
2023/05/29 00:08:50;;;;;;;6.10;4.30;;;;;;;21.88;29.96;100414.04;108984;1256;60392;-67
2023/05/29 00:11:17;;;;;;;12.00;4.30;;;;;;;22.21;29.36;100412.97;109068;1255;60006;-67
2023/05/29 00:13:45;;;;;;;10.20;4.60;;;;;;;22.39;29.40;100410.83;108993;1256;72994;-67
2023/05/29 00:16:12;;;;;;;8.90;5.20;;;;;;;22.16;29.42;100413.71;109024;1255;70523;-68
2023/05/29 00:18:45;;;;;;;13.00;4.80;;;;;;;22.14;29.41;100413.88;108998;1255;71960;-67
2023/05/29 00:21:13;;;;;;;9.30;4.90;;;;;;;21.97;29.60;100415.39;108990;1255;61795;-68
2023/05/29 00:23:41;;;;;;;9.50;4.80;;;;;;;21.70;29.60;100408.82;108998;1256;59963;-68
2023/05/29 00:26:08;;;;;;;8.10;4.80;;;;;;;21.75;30.02;100412.50;109003;1255;74163;-67
2023/05/29 00:28:37;;;;;;;9.40;4.80;;;;;;;21.63;29.96;100413.82;109008;1256;70307;-67
2023/05/29 00:31:05;;;;;;;10.00;4.60;;;;;;;21.87;29.76;100416.23;108930;1260;72693;-68
2023/05/29 00:33:32;;;;;;;9.90;5.20;;;;;;;21.86;30.01;100412.94;108978;1256;60486;-68
2023/05/29 00:36:00;;;;;;;10.40;4.70;;;;;;;21.92;29.30;100414.96;109030;1256;59145;-67
2023/05/29 00:38:27;;;;;;;10.90;5.00;;;;;;;22.02;29.68;100419.51;109023;1255;73805;-68
2023/05/29 00:40:55;;;;;;;9.80;5.00;;;;;;;21.98;29.72;100422.14;109005;1258;70290;-67
2023/05/29 00:43:22;;;;;;;10.10;4.60;;;;;;;22.05;29.53;100416.40;109000;1255;72679;-68
2023/05/29 00:45:50;;;;;;;9.00;5.50;;;;;;;22.01;29.75;100415.86;108916;1255;61864;-67
2023/05/29 00:48:17;;;;;;;8.40;4.80;;;;;;;21.76;29.75;100413.04;108933;1255;60556;-68
2023/05/29 00:50:44;;;;;;;8.90;4.80;;;;;;;21.70;29.97;100410.65;109095;1255;71811;-67
2023/05/29 00:53:12;;;;;;;9.90;5.40;;;;;;;21.98;29.76;100408.03;108972;1259;69235;-67
2023/05/29 00:55:39;;;;;;;8.40;5.40;;;;;;;22.09;29.24;100410.16;108881;1256;71546;-67
2023/05/29 00:58:07;;;;;;;11.40;5.30;;;;;;;22.03;29.58;100405.66;108878;1255;61699;-68
2023/05/29 01:00:35;;;;;;;12.20;5.40;;;;;;;21.74;29.69;100408.66;109013;1256;58814;-68
2023/05/29 01:03:04;;;;;;;8.00;5.30;;;;;;;21.75;29.79;100407.87;108987;1257;73835;-68
2023/05/29 01:05:33;;;;;;;8.20;5.20;;;;;;;21.44;30.48;100410.62;108971;1256;69083;-67
2023/05/29 01:08:02;;;;;;;10.10;5.30;;;;;;;21.24;30.37;100409.69;108897;1264;71394;-67
2023/05/29 01:10:29;;;;;;;12.40;5.30;;;;;;;21.11;30.83;100413.16;109035;1255;60458;-67
2023/05/29 01:13:09;;;;;;;13.30;5.40;;;;;;;21.00;30.86;100414.03;108952;1255;60153;-67
2023/05/29 01:15:40;;;;;;;7.40;4.40;;;;;;;21.07;30.89;100417.45;109007;1256;73866;-68
2023/05/29 01:18:25;;;;;;;9.00;5.10;;;;;;;21.39;30.60;100421.24;109010;1256;70628;-67
2023/05/29 01:21:11;;;;;;;9.30;5.20;;;;;;;21.67;30.29;100419.05;108999;1256;72708;-67
2023/05/29 01:23:45;;;;;;;8.80;5.20;;;;;;;21.15;30.60;100416.67;108921;1256;60594;-66
2023/05/29 01:26:16;;;;;;;10.20;5.10;;;;;;;20.94;31.28;100412.52;108987;1256;60072;-67
2023/05/29 01:28:55;;;;;;;11.80;6.00;;;;;;;20.84;31.20;100413.98;109021;1255;72771;-66
2023/05/29 01:31:23;;;;;;;8.60;5.10;;;;;;;21.08;30.89;100416.98;108953;1256;70008;-67
2023/05/29 01:33:52;;;;;;;12.40;5.40;;;;;;;21.23;31.11;100419.04;108991;1255;71469;-67
2023/05/29 01:36:20;;;;;;;11.40;4.90;;;;;;;21.10;30.88;100420.02;108998;1256;61675;-66
2023/05/29 01:38:49;;;;;;;8.60;5.70;;;;;;;21.07;31.09;100424.58;109015;1256;60212;-67
2023/05/29 01:41:17;;;;;;;10.70;5.70;;;;;;;20.48;31.73;100423.30;108993;1256;73742;-67
2023/05/29 01:43:44;;;;;;;10.30;4.80;;;;;;;20.70;31.31;100425.56;109016;1255;70538;-67
2023/05/29 01:46:12;;;;;;;10.30;5.70;;;;;;;20.69;31.74;100429.94;108949;1257;72712;-67
2023/05/29 01:48:44;;;;;;;11.70;6.10;;;;;;;20.69;31.46;100430.13;108901;1255;61673;-67
2023/05/29 01:51:12;;;;;;;11.70;6.10;;;;;;;20.69;31.30;100428.34;108977;1255;60055;-68
2023/05/29 01:53:39;;;;;;;8.90;4.80;;;;;;;20.81;31.43;100426.73;108979;1255;73852;-67
2023/05/29 01:56:07;;;;;;;13.20;5.00;;;;;;;21.10;30.77;100432.34;109049;1256;69944;-68
2023/05/29 01:58:34;;;;;;;12.30;5.30;;;;;;;21.01;31.30;100437.73;108975;1255;72873;-67
2023/05/29 02:01:03;;;;;;;10.30;5.00;;;;;;;21.08;31.06;100436.61;108979;1256;61791;-68
2023/05/29 02:03:31;;;;;;;10.80;5.30;;;;;;;21.20;30.74;100441.60;108981;1256;60158;-66
2023/05/29 02:06:00;;;;;;;12.50;5.00;;;;;;;21.30;30.98;100441.80;108938;1256;71595;-67
2023/05/29 02:08:27;;;;;;;9.80;5.10;;;;;;;21.09;30.97;100445.16;108989;1256;68882;-66
2023/05/29 02:10:55;;;;;;;9.40;5.50;;;;;;;21.07;31.03;100446.35;108953;1256;72711;-67
2023/05/29 02:13:22;;;;;;;10.20;5.10;;;;;;;20.94;31.24;100448.24;108888;1256;61684;-67
2023/05/29 02:15:50;;;;;;;7.90;5.10;;;;;;;20.96;31.08;100452.00;108924;1256;58738;-65
2023/05/29 02:18:17;;;;;;;11.70;6.30;;;;;;;20.93;31.30;100451.73;108917;1256;73761;-66
2023/05/29 02:20:45;;;;;;;13.80;5.20;;;;;;;20.77;31.51;100453.40;108958;1256;70008;-65
2023/05/29 02:23:19;;;;;;;9.60;5.00;;;;;;;20.86;31.24;100447.94;108952;1256;72705;-66
2023/05/29 02:25:46;;;;;;;11.40;5.10;;;;;;;21.03;31.52;100445.89;108975;1255;60799;-65
2023/05/29 02:28:14;;;;;;;10.90;5.00;;;;;;;21.12;30.94;100446.31;109014;1259;59990;-66
2023/05/29 02:30:41;;;;;;;9.40;5.50;;;;;;;21.27;31.12;100450.70;109017;1255;72755;-66
2023/05/29 02:33:09;;;;;;;9.30;5.40;;;;;;;21.23;31.21;100451.76;109003;1256;68730;-66
2023/05/29 02:35:36;;;;;;;9.20;4.50;;;;;;;21.18;30.83;100448.88;108945;1257;71667;-67
2023/05/29 02:38:04;;;;;;;9.30;5.60;;;;;;;21.31;31.31;100450.20;108930;1256;60471;-66
2023/05/29 02:40:31;;;;;;;7.30;4.80;;;;;;;21.35;31.01;100449.19;109002;1256;59979;-66
2023/05/29 02:43:00;;;;;;;8.60;4.90;;;;;;;21.41;31.22;100447.92;109009;1255;73812;-66
2023/05/29 02:45:27;;;;;;;10.90;4.80;;;;;;;21.58;31.08;100445.84;109004;1255;69952;-65
2023/05/29 02:47:54;;;;;;;6.00;4.20;;;;;;;21.60;30.98;100444.85;109017;1256;71767;-65
2023/05/29 02:50:22;;;;;;;10.30;5.30;;;;;;;21.59;31.33;100441.84;108998;1257;60379;-66
2023/05/29 02:52:50;;;;;;;7.20;4.10;;;;;;;21.55;31.01;100446.85;108955;1255;59024;-66
2023/05/29 02:55:17;;;;;;;7.40;4.00;;;;;;;21.64;30.83;100444.34;108977;1256;73848;-65
2023/05/29 02:57:44;;;;;;;10.00;5.20;;;;;;;21.73;31.20;100445.22;109004;1255;69964;-66
2023/05/29 03:00:12;;;;;;;8.30;4.60;;;;;;;21.83;30.75;100444.44;108999;1256;72644;-66
2023/05/29 03:02:40;;;;;;;7.50;4.30;;;;;;;22.16;30.45;100448.08;108892;1256;60564;-66
2023/05/29 03:05:07;;;;;;;6.90;4.50;;;;;;;22.56;30.01;100444.23;108996;1256;60233;-67
2023/05/29 03:07:36;;;;;;;7.00;4.90;;;;;;;22.92;29.29;100441.70;109107;1256;72637;-67
2023/05/29 03:10:03;;;;;;;8.50;5.20;;;;;;;22.94;29.79;100444.94;109053;1256;70088;-66
2023/05/29 03:12:31;;;;;;;9.40;4.90;;;;;;;23.15;29.16;100443.55;108997;1256;71675;-66
2023/05/29 03:14:59;;;;;;;10.50;4.70;;;;;;;23.44;29.08;100439.99;108959;1256;58870;-67
2023/05/29 03:17:27;;;;;;;9.90;4.40;;;;;;;23.49;28.85;100443.81;108959;1256;58752;-67
2023/05/29 03:19:55;;;;;;;7.60;4.10;;;;;;;23.36;28.78;100437.77;108934;1256;73914;-67
2023/05/29 03:22:22;;;;;;;11.00;4.90;;;;;;;23.39;28.96;100443.81;108936;1256;70059;-66
2023/05/29 03:24:50;;;;;;;10.70;4.30;;;;;;;23.20;28.92;100446.98;108981;1256;71555;-66
2023/05/29 03:27:17;;;;;;;10.50;4.40;;;;;;;23.37;28.73;100443.13;108961;1255;59258;-66
2023/05/29 03:29:47;;;;;;;9.40;4.50;;;;;;;23.37;28.95;100446.17;108940;1255;58801;-67
2023/05/29 03:32:15;;;;;;;10.30;4.70;;;;;;;23.58;28.45;100445.78;108973;1256;72377;-67
2023/05/29 03:34:42;;;;;;;10.60;4.80;;;;;;;23.87;28.04;100447.38;108962;1259;70604;-66
2023/05/29 03:37:10;;;;;;;8.10;4.20;;;;;;;23.98;27.45;100444.30;108958;1255;72893;-67
2023/05/29 03:39:37;;;;;;;7.30;3.90;;;;;;;23.83;27.43;100445.74;108957;1262;58765;-67
2023/05/29 03:42:05;;;;;;;8.50;4.20;;;;;;;23.83;27.28;100447.55;108972;1255;59035;-66
2023/05/29 03:44:33;;;;;;;12.50;3.80;;;;;;;24.10;26.82;100449.12;108996;1255;72975;-68
2023/05/29 03:47:00;;;;;;;9.40;4.60;;;;;;;24.30;26.58;100451.10;109026;1256;69048;-67
2023/05/29 03:49:30;;;;;;;8.60;4.10;;;;;;;23.99;26.68;100449.52;108938;1255;72643;-67
2023/05/29 03:51:57;;;;;;;9.70;4.30;;;;;;;24.03;26.84;100452.12;109001;1255;59459;-66
2023/05/29 03:54:25;;;;;;;9.10;3.70;;;;;;;24.43;26.31;100449.79;108977;1255;58441;-66
2023/05/29 03:56:53;;;;;;;4.80;3.40;;;;;;;24.75;26.17;100449.92;108944;1256;73040;-66
2023/05/29 03:59:21;;;;;;;9.00;3.40;;;;;;;25.05;26.11;100451.19;108954;1255;69300;-66
2023/05/29 04:01:48;;;;;;;12.90;3.60;;;;;;;25.47;25.60;100454.08;108933;1256;71421;-66
2023/05/29 04:04:16;;;;;;;9.90;3.80;;;;;;;25.66;25.07;100451.06;108971;1256;60143;-67
2023/05/29 04:06:44;;;;;;;9.50;3.60;;;;;;;25.81;25.07;100454.92;108959;1255;60006;-66
2023/05/29 04:09:11;;;;;;;6.10;3.40;;;;;;;26.15;25.05;100454.23;109006;1256;73961;-66
2023/05/29 04:11:39;;;;;;;8.00;3.50;;;;;;;26.44;24.46;100454.42;109007;1256;68721;-67
2023/05/29 04:14:06;;;;;;;8.90;3.70;;;;;;;26.78;24.32;100454.55;108965;1256;72712;-66
2023/05/29 04:16:34;;;;;;;5.80;3.20;;;;;;;26.94;23.48;100452.75;108981;1256;58797;-66
2023/05/29 04:19:01;;;;;;;12.40;3.70;;;;;;;26.71;23.02;100457.77;108971;1256;60012;-68
2023/05/29 04:21:32;;;;;;;9.80;3.60;;;;;;;26.48;23.68;100459.06;108963;1255;73818;-65
2023/05/29 04:24:00;;;;;;;4.80;2.70;;;;;;;26.67;23.58;100454.87;108901;1256;69988;-67
2023/05/29 04:26:28;;;;;;;10.80;3.40;;;;;;;27.13;23.46;100454.44;108936;1256;72831;-66
2023/05/29 04:28:58;;;;;;;6.40;3.50;;;;;;;27.46;23.38;100452.63;108935;1256;60063;-68
2023/05/29 04:31:26;;;;;;;10.60;3.20;;;;;;;27.77;22.38;100454.39;108965;1256;59493;-68
2023/05/29 04:33:54;;;;;;;7.00;3.30;;;;;;;27.73;22.78;100454.20;108923;1256;73874;-68
2023/05/29 04:36:25;;;;;;;8.50;3.30;;;;;;;27.96;22.79;100456.14;108936;1261;68852;-67
2023/05/29 04:39:00;;;;;;;9.30;3.40;;;;;;;28.10;22.28;100456.26;108947;1256;72486;-67
2023/05/29 04:41:30;;;;;;;9.20;3.00;;;;;;;28.06;21.87;100454.55;108870;1256;60157;-67
2023/05/29 04:43:58;;;;;;;5.80;3.00;;;;;;;28.04;21.58;100456.36;108978;1256;59026;-68
2023/05/29 04:46:31;;;;;;;9.00;3.00;;;;;;;28.10;21.64;100455.05;108866;1256;73633;-67
2023/05/29 04:48:59;;;;;;;8.50;4.00;;;;;;;28.22;21.40;100454.86;108948;1256;69227;-68
2023/05/29 04:51:28;;;;;;;6.40;2.90;;;;;;;28.43;21.21;100456.56;108937;1256;71284;-67
2023/05/29 04:53:56;;;;;;;11.90;3.00;;;;;;;28.65;20.98;100453.38;108921;1256;60109;-68
2023/05/29 04:56:24;;;;;;;7.30;3.10;;;;;;;28.76;20.72;100455.80;108913;1256;59433;-67
2023/05/29 04:58:51;;;;;;;4.40;2.90;;;;;;;28.93;20.64;100455.94;108930;1256;72587;-67
2023/05/29 05:01:19;;;;;;;7.90;2.70;;;;;;;29.13;20.40;100455.59;108913;1256;69048;-66
2023/05/29 05:03:47;;;;;;;6.60;2.70;;;;;;;29.38;20.46;100457.71;108922;1256;72617;-67
2023/05/29 05:06:16;;;;;;;9.00;2.90;;;;;;;29.77;19.92;100460.70;108971;1256;60075;-67
2023/05/29 05:08:44;;;;;;;6.70;2.60;;;;;;;29.95;19.84;100458.38;108939;1256;58745;-67
2023/05/29 05:11:12;;;;;;;7.30;2.70;;;;;;;30.02;19.77;100458.23;108974;1256;72775;-68
2023/05/29 05:13:40;;;;;;;5.20;2.60;;;;;;;30.53;19.51;100459.48;108971;1256;69231;-67
2023/05/29 05:16:08;;;;;;;11.70;2.90;;;;;;;30.58;19.11;100459.95;108944;1256;75205;-67
2023/05/29 05:18:37;;;;;;;15.90;3.10;;;;;;;30.77;19.00;100453.55;108890;1256;58838;-68
2023/05/29 05:21:06;;;;;;;8.70;3.10;;;;;;;31.00;18.86;100458.19;108974;1256;58881;-68
2023/05/29 05:23:35;;;;;;;8.20;2.50;;;;;;;30.99;18.53;100459.00;108970;1256;73896;-68
2023/05/29 05:26:22;;;;;;;16.80;3.30;;;;;;;31.08;18.27;100460.45;108976;1256;68734;-69
2023/05/29 05:28:50;;;;;;;14.50;3.50;;;;;;;30.96;18.48;100460.41;108961;1256;72700;-68
2023/05/29 05:34:45;;;;;;;14.30;3.70;;;;;;;31.58;18.31;100463.77;108867;1255;60058;-67
2023/05/29 05:37:13;;;;;;;8.30;2.80;;;;;;;32.00;17.88;100465.58;109017;1256;73825;-67
2023/05/29 05:39:40;;;;;;;10.20;2.70;;;;;;;32.18;17.67;100465.49;108921;1263;69097;-67
2023/05/29 05:42:07;;;;;;;9.90;2.80;;;;;;;32.38;17.50;100470.64;108969;1255;71427;-68
2023/05/29 05:44:52;;;;;;;13.30;3.70;;;;;;;32.51;17.58;100470.67;108907;1263;60365;-69
2023/05/29 05:47:19;;;;;;;7.30;3.00;;;;;;;32.57;17.56;100475.00;108958;1256;60038;-69
2023/05/29 05:49:46;;;;;;;10.40;3.10;;;;;;;32.82;17.51;100475.31;109003;1256;72606;-68
2023/05/29 05:52:14;;;;;;;7.80;2.70;;;;;;;33.10;17.15;100476.75;109015;1255;68853;-68
2023/05/29 05:54:41;;;;;;;10.10;3.40;;;;;;;33.21;17.18;100479.42;108953;1258;70739;-68
2023/05/29 05:57:10;;;;;;;8.90;3.20;;;;;;;33.25;17.33;100475.71;108977;1256;58844;-69
2023/05/29 05:59:37;;;;;;;5.20;2.40;;;;;;;33.32;16.96;100473.93;108961;1258;59945;-69
2023/05/29 06:02:05;;;;;;;12.60;2.70;;;;;;;33.46;17.05;100472.40;108970;1256;73964;-69
2023/05/29 06:04:35;;;;;;;5.10;2.70;;;;;;;33.67;16.59;100472.16;108881;1256;70458;-68
2023/05/29 06:07:03;;;;;;;9.00;3.60;;;;;;;33.72;16.97;100476.48;108952;1256;71790;-68
2023/05/29 06:09:30;;;;;;;10.90;3.10;;;;;;;33.86;16.79;100475.05;108988;1259;59175;-70
2023/05/29 06:11:58;;;;;;;10.30;3.00;;;;;;;33.66;16.91;100478.86;108983;1256;60075;-69
2023/05/29 06:14:27;;;;;;;8.60;3.40;;;;;;;33.86;16.82;100473.20;108968;1256;72772;-68
2023/05/29 06:16:54;;;;;;;7.30;2.60;;;;;;;34.16;16.63;100475.08;108957;1256;61391;-66
2023/05/29 06:19:22;;;;;;;7.50;2.70;;;;;;;34.20;16.19;100478.63;109031;1255;72437;-67
2023/05/29 06:21:57;;;;;;;4.20;2.50;;;;;;;34.45;16.29;100477.20;108957;1256;58714;-68
2023/05/29 06:24:26;;;;;;;5.80;2.90;;;;;;;34.70;16.12;100475.22;108989;1256;59629;-67
2023/05/29 06:26:54;;;;;;;11.50;2.50;;;;;;;34.91;15.95;100478.16;108933;1256;63669;-68
2023/05/29 06:29:21;;;;;;;10.30;2.60;;;;;;;35.00;15.51;100477.88;108907;1257;70107;-67
2023/05/29 06:31:50;;;;;;;7.70;3.10;;;;;;;35.21;15.56;100482.34;108972;1256;62440;-68
2023/05/29 06:34:18;;;;;;;12.20;3.20;;;;;;;35.50;15.45;100480.96;108917;1256;58185;-64
2023/05/29 06:36:45;;;;;;;6.40;2.70;;;;;;;35.94;15.24;100473.65;108947;1257;58308;-66
2023/05/29 06:39:13;;;;;;;6.30;3.00;;;;;;;36.10;15.03;100464.76;108952;1256;64959;-64
2023/05/29 06:41:41;;;;;;;7.20;2.40;;;;;;;35.95;15.01;100466.13;108903;1256;61365;-65
2023/05/29 06:44:08;;;;;;;6.20;2.40;;;;;;;35.77;15.05;100469.05;108963;1257;62506;-65
2023/05/29 06:46:38;;;;;;;7.80;3.10;;;;;;;36.13;14.95;100468.36;108941;1256;58176;-65
2023/05/29 06:49:05;;;;;;;8.00;2.60;;;;;;;36.65;15.14;100466.13;109008;1256;58698;-65
2023/05/29 06:51:33;;;;;;;7.50;2.80;;;;;;;37.03;14.76;100463.27;108983;1256;64957;-63
2023/05/29 06:54:23;;;;;;;10.30;3.10;;;;;;;37.03;14.61;100460.82;109010;1256;60129;-64
2023/05/29 06:56:51;;;;;;;10.20;2.70;;;;;;;37.11;14.53;100456.79;108954;1258;63726;-65
2023/05/29 06:59:36;;;;;;;10.10;2.40;;;;;;;37.77;14.20;100449.48;108927;1256;58219;-65
2023/05/29 07:02:05;;;;;;;7.20;2.00;;;;;;;38.02;13.29;100446.84;108964;1256;58257;-65
2023/05/29 07:04:32;;;;;;;5.60;2.10;;;;;;;38.13;13.08;100447.70;108938;1256;67164;-65
2023/05/29 07:07:00;;;;;;;9.50;3.50;;;;;;;37.82;13.09;100442.50;108977;1256;61387;-63
2023/05/29 07:11:37;;;;;;;7.10;2.40;;;;;;;34.85;15.20;100441.85;104751;1291;600142;-63
2023/05/29 07:14:05;;;;;;;4.50;1.90;;;;;;;36.27;14.24;100442.16;107256;1266;59287;-61
2023/05/29 07:16:33;;;;;;;5.10;2.00;;;;;;;36.56;13.98;100439.63;107345;1267;58921;-60
2023/05/29 07:19:03;;;;;;;3.20;1.90;;;;;;;36.61;13.87;100438.05;107300;1266;63366;-60
2023/05/29 07:21:35;;;;;;;5.90;1.70;;;;;;;36.69;13.90;100439.06;107334;1266;62416;-64
2023/05/29 07:24:03;;;;;;;6.90;1.70;;;;;;;36.41;12.93;100441.98;107351;1259;392665;-62
2023/05/29 07:26:31;;;;;;;3.50;1.80;;;;;;;36.32;13.30;100438.61;107852;1257;59210;-62
2023/05/29 07:28:59;;;;;;;3.80;1.60;;;;;;;36.37;13.72;100442.34;107882;1257;59208;-61
2023/05/29 07:31:28;;;;;;;4.80;1.50;;;;;;;36.19;13.41;100439.34;107947;1261;63530;-61
2023/05/29 07:33:57;;;;;;;3.90;1.30;;;;;;;35.99;13.52;100443.31;107901;1256;61495;-59
2023/05/29 07:36:30;;;;;;;3.90;1.40;;;;;;;35.89;13.37;100436.48;107672;1262;62631;-61
2023/05/29 07:38:58;;;;;;;8.90;1.60;;;;;;;36.07;13.14;100438.16;107712;1256;59634;-61
2023/05/29 07:41:29;;;;;;;3.50;1.40;;;;;;;36.28;13.06;100447.11;107795;1256;59754;-61
2023/05/29 07:43:56;;;;;;;3.90;1.40;;;;;;;35.93;13.30;100442.03;108149;1253;62975;-63
2023/05/29 07:46:24;;;;;;;3.30;1.30;;;;;;;35.71;13.48;100446.59;108113;1251;60423;-61
2023/05/29 07:48:55;;;;;;;6.20;1.30;;;;;;;35.37;12.92;100454.84;108089;1254;62806;-62
2023/05/29 07:51:24;;;;;;;5.30;1.50;;;;;;;35.10;13.51;100457.98;108318;1251;60146;-61
2023/05/29 07:53:52;;;;;;;4.40;1.20;;;;;;;35.09;13.79;100451.17;108343;1251;59631;-61
2023/05/29 07:56:21;;;;;;;17.90;1.90;;;;;;;35.39;13.35;100448.56;108269;1254;63130;-61
2023/05/29 07:58:48;;;;;;;5.60;1.40;;;;;;;35.50;13.31;100453.58;108287;1252;61373;-62
2023/05/29 08:01:15;;;;;;;5.10;1.20;;;;;;;35.42;13.37;100456.81;108169;1253;63263;-61
2023/05/29 08:03:43;;;;;;;4.80;1.30;;;;;;;35.55;13.16;100452.30;108129;1253;59618;-61
2023/05/29 08:06:11;;;;;;;5.20;1.30;;;;;;;35.87;12.93;100455.02;108192;1252;59645;-61
2023/05/29 08:08:38;;;;;;;6.30;1.40;;;;;;;35.96;13.31;100455.17;108142;1253;64425;-60
2023/05/29 08:11:06;;;;;;;5.50;1.20;;;;;;;35.57;13.79;100452.42;108175;1253;61330;-61
2023/05/29 08:13:34;;;;;;;3.00;1.30;;;;;;;35.33;13.68;100449.20;108123;1257;63782;-66
2023/05/29 08:16:02;;;;;;;5.80;1.50;;;;;;;35.78;13.71;100441.21;108158;1253;59633;-65
2023/05/29 08:18:30;;;;;;;3.50;1.40;;;;;;;36.18;13.49;100429.39;108112;1253;59383;-67
2023/05/29 08:20:58;;;;;;;5.10;1.80;;;;;;;36.49;13.51;100425.17;108126;1252;64159;-63
2023/05/29 08:23:26;;;;;;;4.20;1.40;;;;;;;36.60;13.20;100422.55;108127;1252;60103;-66
2023/05/29 08:25:54;;;;;;;4.70;1.60;;;;;;;36.41;13.40;100425.31;108040;1253;63690;-66
2023/05/29 08:28:21;;;;;;;5.70;1.40;;;;;;;35.78;13.43;100431.23;108121;1253;59477;-66
2023/05/29 08:30:48;;;;;;;2.20;1.40;;;;;;;35.23;13.60;100429.19;108104;1253;59548;-65
2023/05/29 08:33:16;;;;;;;3.30;1.70;;;;;;;35.16;13.78;100427.55;108097;1257;62867;-66
2023/05/29 08:35:43;;;;;;;4.20;1.50;;;;;;;35.49;13.45;100426.48;108180;1253;70933;-65
2023/05/29 08:38:12;;;;;;;6.60;1.30;;;;;;;35.70;13.27;100431.46;108114;1253;64214;-65
2023/05/29 08:40:39;;;;;;;3.20;1.40;;;;;;;35.66;13.07;100428.33;108141;1253;59641;-65
2023/05/29 08:43:14;;;;;;;3.80;1.40;;;;;;;35.75;12.72;100426.23;108197;1253;59481;-64
2023/05/29 08:45:43;;;;;;;3.50;1.20;;;;;;;36.10;13.13;100426.14;108101;1253;62827;-65
2023/05/29 08:48:11;;;;;;;4.30;1.40;;;;;;;36.66;12.94;100421.20;108188;1252;61397;-65
2023/05/29 08:50:44;;;;;;;3.50;1.30;;;;;;;37.28;12.38;100415.79;108231;1252;62408;-64
2023/05/29 08:53:12;;;;;;;5.70;1.40;;;;;;;37.51;12.22;100414.54;108078;1253;59587;-65
2023/05/29 08:55:40;;;;;;;4.70;1.20;;;;;;;37.60;12.05;100415.09;108156;1253;59523;-65
2023/05/29 08:58:08;;;;;;;6.10;1.50;;;;;;;37.41;12.35;100411.04;108251;1252;64159;-67
2023/05/29 09:00:36;;;;;;;6.10;1.50;;;;;;;37.42;12.23;100412.50;108215;1253;61516;-69
2023/05/29 09:03:03;;;;;;;3.90;2.00;;;;;;;37.40;12.16;100410.34;108147;1253;62614;-66
2023/05/29 09:05:32;;;;;;;7.80;2.10;;;;;;;36.93;12.28;100406.67;108059;1253;59591;-64
2023/05/29 09:07:59;;;;;;;10.10;2.00;;;;;;;36.46;12.68;100401.36;108121;1252;59537;-64
2023/05/29 09:10:27;;;;;;;5.50;1.50;;;;;;;35.95;13.12;100405.02;108147;1253;64056;-65
2023/05/29 09:12:55;;;;;;;4.70;1.50;;;;;;;35.67;12.95;100405.17;108215;1253;61522;-66
2023/05/29 09:15:23;;;;;;;4.10;1.40;;;;;;;35.63;12.77;100399.59;108109;1253;72712;-65
2023/05/29 09:17:54;;;;;;;4.70;1.60;;;;;;;35.69;12.92;100395.61;108131;1253;59523;-65
2023/05/29 09:20:23;;;;;;;3.90;1.40;;;;;;;35.70;12.84;100388.70;108204;1253;59218;-65
2023/05/29 09:22:57;;;;;;;3.30;1.40;;;;;;;35.85;12.86;100386.02;108185;1256;64143;-66
2023/05/29 09:25:26;;;;;;;2.80;1.60;;;;;;;36.07;12.77;100384.77;108331;1252;61533;-66
2023/05/29 09:27:55;;;;;;;5.70;1.50;;;;;;;35.80;12.81;100384.40;108175;1253;63798;-66
2023/05/29 09:30:32;;;;;;;7.50;1.40;;;;;;;35.65;12.86;100382.26;108217;1253;59589;-65
2023/05/29 09:33:00;;;;;;;3.60;1.40;;;;;;;35.79;12.90;100379.10;108198;1253;59456;-65
2023/05/29 09:35:39;;;;;;;6.90;1.50;;;;;;;35.70;12.78;100379.39;108116;1252;64218;-65
2023/05/29 09:38:11;;;;;;;4.20;1.40;;;;;;;35.77;12.73;100375.86;108082;1253;61321;-64
2023/05/29 09:41:00;;;;;;;4.80;1.70;;;;;;;35.98;12.96;100374.73;108045;1257;63837;-65
2023/05/29 09:43:27;;;;;;;5.40;1.40;;;;;;;36.09;12.71;100375.67;108217;1253;59555;-66
2023/05/29 09:45:55;;;;;;;4.70;1.50;;;;;;;36.14;12.90;100371.42;108063;1251;59153;-65
2023/05/29 09:48:23;;;;;;;2.00;1.30;;;;;;;36.44;12.67;100366.73;108038;1252;64735;-65
2023/05/29 09:50:51;;;;;;;5.30;1.50;;;;;;;36.62;12.60;100360.55;108142;1253;61586;-65
2023/05/29 09:53:27;;;;;;;2.50;1.40;;;;;;;36.57;12.59;100364.50;108082;1253;63700;-64
2023/05/29 09:56:13;;;;;;;5.80;1.20;;;;;;;36.15;12.95;100362.95;108194;1253;59529;-65
2023/05/29 09:58:45;;;;;;;3.60;1.30;;;;;;;35.18;13.70;100363.05;108135;1253;59009;-65
2023/05/29 10:01:16;;;;;;;5.50;1.40;;;;;;;35.06;14.14;100355.28;108298;1253;62831;-65
2023/05/29 10:03:44;;;;;;;4.40;1.60;;;;;;;35.34;13.81;100350.96;108098;1252;61692;-65
2023/05/29 10:06:13;;;;;;;7.70;1.50;;;;;;;35.90;13.53;100348.27;108157;1253;64060;-64
2023/05/29 10:08:47;;;;;;;6.30;1.90;;;;;;;36.33;13.20;100340.58;108057;1253;59023;-65
2023/05/29 10:11:19;;;;;;;2.60;1.50;;;;;;;36.85;13.08;100335.72;108132;1253;59520;-65
2023/05/29 10:13:48;;;;;;;8.50;1.60;;;;;;;37.15;12.60;100333.57;108192;1253;63152;-65
2023/05/29 10:16:16;;;;;;;3.70;1.60;;;;;;;37.19;12.16;100333.86;108104;1253;60289;-64
2023/05/29 10:18:45;;;;;;;6.60;1.50;;;;;;;37.30;12.02;100335.06;108033;1253;63824;-66
2023/05/29 10:21:12;;;;;;;4.20;1.60;;;;;;;37.28;12.25;100335.56;108100;1252;59523;-65
2023/05/29 10:23:41;;;;;;;3.30;1.30;;;;;;;37.12;12.17;100332.92;108095;1252;59535;-65
2023/05/29 10:26:15;;;;;;;4.10;1.40;;;;;;;37.04;12.27;100337.46;108087;1253;62870;-66
2023/05/29 10:28:46;;;;;;;7.50;1.50;;;;;;;36.98;12.63;100332.36;108035;1253;60235;-65
2023/05/29 10:31:23;;;;;;;6.60;1.30;;;;;;;37.07;12.89;100334.23;107989;1253;63720;-66
2023/05/29 10:33:58;;;;;;;4.70;1.20;;;;;;;37.28;12.68;100340.10;107976;1252;60718;-67
2023/05/29 10:36:30;;;;;;;3.70;1.40;;;;;;;37.51;12.32;100336.65;108092;1253;59626;-67
2023/05/29 10:38:57;;;;;;;5.50;1.20;;;;;;;37.78;12.31;100333.09;108023;1253;64174;-65
2023/05/29 10:41:28;;;;;;;4.40;1.40;;;;;;;38.09;12.15;100334.38;108128;1253;61691;-66
2023/05/29 10:44:02;;;;;;;4.00;1.50;;;;;;;38.13;12.09;100341.27;108060;1253;63773;-66
2023/05/29 10:46:43;;;;;;;3.40;1.40;;;;;;;38.33;12.13;100339.59;108159;1253;59530;-66
2023/05/29 10:49:17;;;;;;;1.70;1.20;;;;;;;38.84;12.05;100334.39;108150;1253;59225;-66
2023/05/29 10:51:45;;;;;;;2.80;1.10;;;;;;;39.19;11.62;100324.29;108136;1252;62924;-66
2023/05/29 10:54:16;;;;;;;5.40;1.20;;;;;;;39.34;11.59;100317.52;108076;1257;60240;-66
2023/05/29 10:56:45;;;;;;;6.40;1.50;;;;;;;39.43;11.79;100324.40;108105;1253;63781;-65
2023/05/29 10:59:12;;;;;;;4.70;1.30;;;;;;;39.37;11.80;100325.70;108374;1255;59592;-66
2023/05/29 11:01:40;;;;;;;6.10;1.70;;;;;;;39.39;11.82;100323.42;108070;1253;59551;-65
2023/05/29 11:04:26;;;;;;;8.10;1.50;;;;;;;38.95;11.84;100331.92;108307;1253;64119;-65
2023/05/29 11:06:54;;;;;;;5.60;1.20;;;;;;;38.46;12.01;100328.60;108115;1253;61435;-67
2023/05/29 11:09:36;;;;;;;3.30;1.00;;;;;;;38.17;12.34;100322.13;108221;1253;62434;-66
2023/05/29 11:12:16;;;;;;;2.90;1.40;;;;;;;38.48;12.49;100317.34;108125;1253;59644;-66
2023/05/29 11:14:48;;;;;;;4.50;1.30;;;;;;;39.28;12.04;100313.64;108239;1253;59503;-69
2023/05/29 11:17:36;;;;;;;4.30;1.30;;;;;;;39.74;11.57;100314.70;108397;1257;64213;-68
2023/05/29 11:20:06;;;;;;;4.40;1.10;;;;;;;39.97;11.33;100314.16;108508;1257;60861;-68
2023/05/29 11:22:53;;;;;;;7.10;1.40;;;;;;;39.65;11.41;100309.88;108674;1253;63027;-68
2023/05/29 11:25:21;;;;;;;2.80;1.10;;;;;;;39.40;11.47;100306.27;108133;1253;60303;-70
2023/05/29 11:27:53;;;;;;;2.90;1.20;;;;;;;39.22;11.67;100299.61;108291;1253;60314;-69
2023/05/29 11:30:24;;;;;;;6.50;1.30;;;;;;;39.10;11.89;100300.72;108136;1253;66792;-70